地図

経路データ

SID SEASON NUMBER BASIN SUBBASIN NAME ISO_TIME NATURE LAT LON WMO_WIND WMO_PRES WMO_AGENCY TRACK_TYPE DIST2LAND LANDFALL IFLAG USA_AGENCY USA_ATCF_ID USA_LAT USA_LON USA_RECORD USA_STATUS USA_WIND USA_PRES USA_SSHS USA_R34_NE USA_R34_SE USA_R34_SW USA_R34_NW USA_R50_NE USA_R50_SE USA_R50_SW USA_R50_NW USA_R64_NE USA_R64_SE USA_R64_SW USA_R64_NW USA_POCI USA_ROCI USA_RMW USA_EYE TOKYO_LAT TOKYO_LON TOKYO_GRADE TOKYO_WIND TOKYO_PRES TOKYO_R50_DIR TOKYO_R50_LONG TOKYO_R50_SHORT TOKYO_R30_DIR TOKYO_R30_LONG TOKYO_R30_SHORT TOKYO_LAND CMA_LAT CMA_LON CMA_CAT CMA_WIND CMA_PRES HKO_LAT HKO_LON HKO_CAT HKO_WIND HKO_PRES NEWDELHI_LAT NEWDELHI_LON NEWDELHI_GRADE NEWDELHI_WIND NEWDELHI_PRES NEWDELHI_CI NEWDELHI_DP NEWDELHI_POCI REUNION_LAT REUNION_LON REUNION_TYPE REUNION_WIND REUNION_PRES REUNION_TNUM REUNION_CI REUNION_RMW REUNION_R34_NE REUNION_R34_SE REUNION_R34_SW REUNION_R34_NW REUNION_R50_NE REUNION_R50_SE REUNION_R50_SW REUNION_R50_NW REUNION_R64_NE REUNION_R64_SE REUNION_R64_SW REUNION_R64_NW BOM_LAT BOM_LON BOM_TYPE BOM_WIND BOM_PRES BOM_TNUM BOM_CI BOM_RMW BOM_R34_NE BOM_R34_SE BOM_R34_SW BOM_R34_NW BOM_R50_NE BOM_R50_SE BOM_R50_SW BOM_R50_NW BOM_R64_NE BOM_R64_SE BOM_R64_SW BOM_R64_NW BOM_ROCI BOM_POCI BOM_EYE BOM_POS_METHOD BOM_PRES_METHOD NADI_LAT NADI_LON NADI_CAT NADI_WIND NADI_PRES WELLINGTON_LAT WELLINGTON_LON WELLINGTON_WIND WELLINGTON_PRES DS824_LAT DS824_LON DS824_STAGE DS824_WIND DS824_PRES TD9636_LAT TD9636_LON TD9636_STAGE TD9636_WIND TD9636_PRES TD9635_LAT TD9635_LON TD9635_WIND TD9635_PRES TD9635_ROCI NEUMANN_LAT NEUMANN_LON NEUMANN_CLASS NEUMANN_WIND NEUMANN_PRES MLC_LAT MLC_LON MLC_CLASS MLC_WIND MLC_PRES USA_GUST BOM_GUST BOM_GUST_PER REUNION_GUST REUNION_GUST_PER USA_SEAHGT USA_SEARAD_NE USA_SEARAD_SE USA_SEARAD_SW USA_SEARAD_NW STORM_SPEED STORM_DIR
1909280N11284 1909 56 NA CS NOT_NAMED 1909-10-06 12:00:00 TS 10.7000 -76.0000 30 hurdat_atl main 55 55 O_____________ hurdat_atl AL111909 10.7000 -76.0000 TD 30 -1 5 330
1909280N11284 1909 56 NA CS NOT_NAMED 1909-10-06 15:00:00 TS 10.9200 -76.1275 main 73 73 P_____________ AL111909 10.9200 -76.1275 TD 30 -1 6 330
1909280N11284 1909 56 NA CS NOT_NAMED 1909-10-06 18:00:00 TS 11.2000 -76.3000 30 hurdat_atl main 110 110 O_____________ hurdat_atl AL111909 11.2000 -76.3000 TD 30 -1 8 328
1909280N11284 1909 56 NA CS NOT_NAMED 1909-10-06 21:00:00 TS 11.5775 -76.5424 main 156 156 P_____________ AL111909 11.5775 -76.5424 TD 32 -1 9 329
1909280N11284 1909 56 NA CS NOT_NAMED 1909-10-07 00:00:00 TS 12.0000 -76.8000 35 hurdat_atl main 211 211 O_____________ hurdat_atl AL111909 12.0000 -76.8000 TS 35 0 9 331
1909280N11284 1909 56 NA CS NOT_NAMED 1909-10-07 03:00:00 TS 12.3924 -77.0002 main 257 257 P_____________ AL111909 12.3925 -77.0002 TS 37 0 9 334
1909280N11284 1909 56 NA CS NOT_NAMED 1909-10-07 06:00:00 TS 12.8000 -77.2000 40 hurdat_atl main 304 304 O_____________ hurdat_atl AL111909 12.8000 -77.2000 TS 40 0 10 333
1909280N11284 1909 56 NA CS NOT_NAMED 1909-10-07 09:00:00 TS 13.2500 -77.4425 main 361 352 P_____________ AL111909 13.2500 -77.4425 TS 42 0 10 332
1909280N11284 1909 56 NA CS NOT_NAMED 1909-10-07 12:00:00 TS 13.7000 -77.7000 45 hurdat_atl main 416 409 O_____________ hurdat_atl AL111909 13.7000 -77.7000 TS 45 0 10 329
1909280N11284 1909 56 NA CS NOT_NAMED 1909-10-07 15:00:00 TS 14.1000 -77.9576 main 411 373 P_____________ AL111909 14.1000 -77.9576 TS 47 0 9 329
1909280N11284 1909 56 NA CS NOT_NAMED 1909-10-07 18:00:00 TS 14.5000 -78.2000 50 hurdat_atl main 373 338 O_____________ hurdat_atl AL111909 14.5000 -78.2000 TS 50 0 9 333
1909280N11284 1909 56 NA CS NOT_NAMED 1909-10-07 21:00:00 TS 14.9349 -78.3927 main 338 295 P_____________ AL111909 14.9349 -78.3927 TS 52 0 10 337
1909280N11284 1909 56 NA CS NOT_NAMED 1909-10-08 00:00:00 TS 15.4000 -78.6000 55 hurdat_atl main 295 257 O_____________ hurdat_atl AL111909 15.4000 -78.6000 TS 55 0 11 334
1909280N11284 1909 56 NA CS NOT_NAMED 1909-10-08 03:00:00 TS 15.9075 -78.8849 main 257 218 P_____________ AL111909 15.9075 -78.8849 TS 57 0 12 330
1909280N11284 1909 56 NA CS NOT_NAMED 1909-10-08 06:00:00 TS 16.4000 -79.2000 60 hurdat_atl main 218 189 O_____________ hurdat_atl AL111909 16.4000 -79.2000 TS 60 0 11 328
1909280N11284 1909 56 NA CS NOT_NAMED 1909-10-08 09:00:00 TS 16.8374 -79.4926 main 195 184 P_____________ AL111909 16.8374 -79.4926 TS 62 0 10 324
1909280N11284 1909 56 NA CS NOT_NAMED 1909-10-08 12:00:00 TS 17.2000 -79.8000 65 hurdat_atl main 185 185 O_____________ hurdat_atl AL111909 17.2000 -79.8000 HU 65 1 9 315
1909280N11284 1909 56 NA CS NOT_NAMED 1909-10-08 15:00:00 TS 17.4725 -80.1501 main 206 206 P_____________ AL111909 17.4725 -80.1501 HU 67 1 8 307
1909280N11284 1909 56 NA CS NOT_NAMED 1909-10-08 18:00:00 TS 17.7000 -80.5000 70 hurdat_atl main 229 229 O_____________ hurdat_atl AL111909 17.7000 -80.5000 HU 70 1 8 308
1909280N11284 1909 56 NA CS NOT_NAMED 1909-10-08 21:00:00 TS 17.9574 -80.8076 main 254 254 P_____________ AL111909 17.9574 -80.8076 HU 75 1 8 311
1909280N11284 1909 56 NA CS NOT_NAMED 1909-10-09 00:00:00 TS 18.2000 -81.1000 80 hurdat_atl main 285 285 O_____________ hurdat_atl AL111909 18.2000 -81.1000 HU 80 1 7 309
1909280N11284 1909 56 NA CS NOT_NAMED 1909-10-09 03:00:00 TS 18.4074 -81.3852 main 317 317 P_____________ AL111909 18.4074 -81.3852 HU 85 2 7 305
1909280N11284 1909 56 NA CS NOT_NAMED 1909-10-09 06:00:00 TS 18.6000 -81.7000 90 hurdat_atl main 333 299 O_____________ hurdat_atl AL111909 18.6000 -81.7000 HU 90 2 8 301
1909280N11284 1909 56 NA CS NOT_NAMED 1909-10-09 09:00:00 TS 18.8075 -82.0925 main 299 270 P_____________ AL111909 18.8075 -82.0925 HU 92 2 9 298
1909280N11284 1909 56 NA CS NOT_NAMED 1909-10-09 12:00:00 TS 19.0000 -82.5000 95 hurdat_atl main 270 257 O_____________ hurdat_atl AL111909 19.0000 -82.5000 HU 95 2 8 296
1909280N11284 1909 56 NA CS NOT_NAMED 1909-10-09 15:00:00 TS 19.1574 -82.8651 main 246 236 P_____________ AL111909 19.1574 -82.8651 HU 97 3 7 294
1909280N11284 1909 56 NA CS NOT_NAMED 1909-10-09 18:00:00 TS 19.3000 -83.2000 100 hurdat_atl main 238 229 O_____________ hurdat_atl AL111909 19.3000 -83.2000 HU 100 3 7 295
1909280N11284 1909 56 NA CS NOT_NAMED 1909-10-09 21:00:00 TS 19.4425 -83.5226 main 235 222 P_____________ AL111909 19.4425 -83.5226 HU 102 3 6 298
1909280N11284 1909 56 NA CS NOT_NAMED 1909-10-10 00:00:00 TS 19.6000 -83.8000 105 hurdat_atl main 226 216 O_____________ hurdat_atl AL111909 19.6000 -83.8000 HU 105 3 6 306
1909280N11284 1909 56 NA CS NOT_NAMED 1909-10-10 03:00:00 TS 19.7850 -84.0300 main 216 203 P_____________ AL111909 19.7850 -84.0300 HU 105 3 6 317
1909280N11284 1909 56 NA CS NOT_NAMED 1909-10-10 06:00:00 TS 20.0000 -84.2000 105 hurdat_atl main 203 180 O_____________ hurdat_atl AL111909 20.0000 -84.2000 HU 105 3 5 329
1909280N11284 1909 56 NA CS NOT_NAMED 1909-10-10 09:00:00 TS 20.2350 -84.3225 main 180 145 P_____________ AL111909 20.2350 -84.3225 HU 105 3 5 340
1909280N11284 1909 56 NA CS NOT_NAMED 1909-10-10 12:00:00 TS 20.5000 -84.4000 105 hurdat_atl main 145 111 O_____________ hurdat_atl AL111909 20.5000 -84.4000 HU 105 3 6 347
1909280N11284 1909 56 NA CS NOT_NAMED 1909-10-10 15:00:00 TS 20.7850 -84.4650 main 111 78 P_____________ AL111909 20.7850 -84.4650 HU 105 3 6 351
1909280N11284 1909 56 NA CS NOT_NAMED 1909-10-10 18:00:00 TS 21.1000 -84.5000 105 hurdat_atl main 78 44 O_____________ hurdat_atl AL111909 21.1000 -84.5000 HU 105 3 7 354
1909280N11284 1909 56 NA CS NOT_NAMED 1909-10-10 21:00:00 TS 21.4350 -84.5373 main 44 0 P_____________ AL111909 21.4350 -84.5373 HU 105 3 7 0
1909280N11284 1909 56 NA CS NOT_NAMED 1909-10-11 00:00:00 TS 21.8000 -84.5000 105 hurdat_atl main 0 0 O_____________ hurdat_atl AL111909 21.8000 -84.5000 HU 105 3 8 11
1909280N11284 1909 56 NA GM NOT_NAMED 1909-10-11 03:00:00 TS 22.1697 -84.3819 main 0 0 P_____________ AL111909 22.1697 -84.3819 HU 105 3 9 25
1909280N11284 1909 56 NA NA NOT_NAMED 1909-10-11 06:00:00 TS 22.6000 -84.1000 105 hurdat_atl main 0 0 O_____________ hurdat_atl AL111909 22.6000 -84.1000 HU 105 3 12 34
1909280N11284 1909 56 NA GM NOT_NAMED 1909-10-11 09:00:00 TS 23.1343 -83.6695 main 33 33 P_____________ AL111909 23.1343 -83.6695 HU 105 3 15 43
1909280N11284 1909 56 NA GM NOT_NAMED 1909-10-11 12:00:00 TS 23.7000 -83.0000 105 hurdat_atl main 80 80 O_____________ hurdat_atl AL111909 23.7000 -83.0000 HU 105 3 18 54
1909280N11284 1909 56 NA NA NOT_NAMED 1909-10-11 15:00:00 TS 24.1853 -82.0741 main 122 44 P_____________ AL111909 24.1853 -82.0741 HU 102 3 21 61
1909280N11284 1909 56 NA NA NOT_NAMED 1909-10-11 18:00:00 TS 24.7000 -81.0000 100 957 hurdat_atl main 45 0 O_____________ hurdat_atl AL111909 24.7000 -81.0000 L HU 100 957 3 22 60
1909280N11284 1909 56 NA NA NOT_NAMED 1909-10-11 21:00:00 TS 25.3119 -79.9566 main 37 37 P_____________ AL111909 25.3119 -79.9566 HU 95 2 23 56
1909280N11284 1909 56 NA NA NOT_NAMED 1909-10-12 00:00:00 TS 26.0000 -78.9000 90 hurdat_atl main 119 119 O_____________ hurdat_atl AL111909 26.0000 -78.9000 HU 90 2 24 53
1909280N11284 1909 56 NA NA NOT_NAMED 1909-10-12 03:00:00 TS 26.7344 -77.8417 main 179 179 P_____________ AL111909 26.7344 -77.8417 HU 85 2 24 51
1909280N11284 1909 56 NA NA NOT_NAMED 1909-10-12 06:00:00 TS 27.5000 -76.8000 80 hurdat_atl main 293 293 O_____________ hurdat_atl AL111909 27.5000 -76.8000 HU 80 1 24 50
1909280N11284 1909 56 NA NA NOT_NAMED 1909-10-12 09:00:00 TS 28.2638 -75.8061 main 418 418 P_____________ AL111909 28.2638 -75.8061 HU 75 1 23 50
1909280N11284 1909 56 NA NA NOT_NAMED 1909-10-12 12:00:00 TS 29.0000 -74.8000 70 hurdat_atl main 538 538 O_____________ hurdat_atl AL111909 29.0000 -74.8000 HU 70 1 23 52
1909280N11284 1909 56 NA NA NOT_NAMED 1909-10-12 15:00:00 TS 29.6637 -73.7428 main 616 603 P_____________ AL111909 29.6637 -73.7428 HU 65 1 23 56
1909280N11284 1909 56 NA NA NOT_NAMED 1909-10-12 18:00:00 TS 30.3000 -72.6000 60 hurdat_atl main 611 608 O_____________ hurdat_atl AL111909 30.3000 -72.6000 TS 60 0 25 58
1909280N11284 1909 56 NA NA NOT_NAMED 1909-10-12 21:00:00 TS 30.9498 -71.3214 main 643 643 P_____________ AL111909 30.9498 -71.3214 TS 55 0 26 60
1909280N11284 1909 56 NA NA NOT_NAMED 1909-10-13 00:00:00 TS 31.6000 -70.0000 50 hurdat_atl main 690 689 O_____________ hurdat_atl AL111909 31.6000 -70.0000 TS 50 0 26 59
1909280N11284 1909 56 NA NA NOT_NAMED 1909-10-13 03:00:00 TS 32.2635 -68.7412 main 736 736 P_____________ AL111909 32.2635 -68.7412 TS 45 0 25 58
1909280N11284 1909 56 NA NA NOT_NAMED 1909-10-13 06:00:00 TS 32.9000 -67.5000 40 hurdat_atl main 800 800 O_____________ hurdat_atl AL111909 32.9000 -67.5000 TS 40 0 24 60
1909280N11284 1909 56 NA NA NOT_NAMED 1909-10-13 09:00:00 TS 33.4796 -66.2190 main 886 886 P_____________ AL111909 33.4796 -66.2190 TS 37 0 24 62
1909280N11284 1909 56 NA NA NOT_NAMED 1909-10-13 12:00:00 TS 34.0000 -65.0000 35 hurdat_atl main 962 956 O_____________ hurdat_atl AL111909 34.0000 -65.0000 TS 35 0 22 63
1909280N11284 1909 56 NA NA NOT_NAMED 1909-10-13 15:00:00 TS 34.4661 -63.9117 main 961 961 P_____________ AL111909 34.4661 -63.9117 TS 32 -1 20 63
1909280N11284 1909 56 NA NA NOT_NAMED 1909-10-13 18:00:00 TS 34.9000 -62.9000 30 hurdat_atl main 976 O_____________ hurdat_atl AL111909 34.9000 -62.9000 TD 30 -1 19 62

IBTrACS Databaseについて

本データベースは、米国NOAAが公開する1842年以降の世界の熱帯低気圧のベストトラックデータアーカイブInternational Best Track Archive for Climate Stewardship (IBTrACS)を、ウェブで閲覧しやすい形式に変換したものです。

最終更新日:2021-11-26